createdAt,value
2022-11-12T00:02:12.619Z,10.57
2022-11-12T00:04:59.975Z,10.35
2022-11-12T00:07:46.167Z,10.55
2022-11-12T00:10:33.816Z,10.92
2022-11-12T00:13:47.433Z,10.88
2022-11-12T00:16:34.705Z,10.87
2022-11-12T00:19:20.827Z,10.75
2022-11-12T00:22:07.180Z,10.94
2022-11-12T00:24:53.788Z,11.19
2022-11-12T00:27:40.578Z,11.06
2022-11-12T00:30:27.793Z,11.11
2022-11-12T00:33:14.544Z,10.99
2022-11-12T00:36:00.949Z,11.41
2022-11-12T00:38:47.001Z,11.31
2022-11-12T00:41:33.136Z,11.39
2022-11-12T00:44:19.413Z,11.28
2022-11-12T00:47:26.327Z,11.08
2022-11-12T00:50:12.483Z,11.11
2022-11-12T00:53:00.219Z,11.08
2022-11-12T00:55:46.633Z,11.19
2022-11-12T00:58:35.134Z,10.95
2022-11-12T01:01:21.812Z,11.01
2022-11-12T01:04:08.663Z,10.84
2022-11-12T01:06:55.453Z,10.77
2022-11-12T01:09:41.270Z,10.81
2022-11-12T01:12:27.411Z,10.87
2022-11-12T01:15:13.519Z,10.98
2022-11-12T01:17:59.600Z,10.70
2022-11-12T01:20:46.740Z,10.72
2022-11-12T01:23:38.237Z,10.86
2022-11-12T01:26:25.090Z,11.24
2022-11-12T01:29:12.188Z,11.47
2022-11-12T01:31:58.579Z,11.59
2022-11-12T01:34:45.105Z,11.43
2022-11-12T01:37:33.348Z,11.58
2022-11-12T01:40:21.588Z,11.53
2022-11-12T01:43:14.650Z,11.46
2022-11-12T01:46:04.574Z,11.84
2022-11-12T01:48:54.454Z,11.94
2022-11-12T01:51:45.082Z,11.67
2022-11-12T01:54:31.471Z,11.49
2022-11-12T01:57:20.691Z,11.54
2022-11-12T02:00:11.778Z,11.42
2022-11-12T02:03:03.625Z,11.48
2022-11-12T02:05:53.823Z,11.47
2022-11-12T02:08:42.060Z,11.36
2022-11-12T02:11:27.837Z,11.25
2022-11-12T02:14:14.378Z,11.24
2022-11-12T02:17:01.045Z,11.42
2022-11-12T02:19:47.320Z,11.39
2022-11-12T02:22:34.853Z,11.39
2022-11-12T02:25:23.419Z,11.38
2022-11-12T02:28:10.185Z,11.48
2022-11-12T02:30:55.990Z,11.54
2022-11-12T02:33:42.067Z,11.58
2022-11-12T02:36:29.290Z,11.62
2022-11-12T02:39:16.889Z,11.49
2022-11-12T02:42:03.694Z,11.36
2022-11-12T02:44:50.064Z,11.36
2022-11-12T02:47:37.832Z,11.59
2022-11-12T02:50:23.702Z,11.24
2022-11-12T02:53:10.325Z,11.52
2022-11-12T02:55:58.514Z,11.20
2022-11-12T02:58:44.687Z,11.17
2022-11-12T03:01:31.646Z,11.08
2022-11-12T03:04:18.058Z,11.07
2022-11-12T03:07:04.725Z,10.90
2022-11-12T03:09:51.859Z,11.01
2022-11-12T03:12:38.166Z,10.97
2022-11-12T03:15:24.578Z,10.95
2022-11-12T03:18:12.113Z,11.06
2022-11-12T03:20:58.600Z,11.07
2022-11-12T03:23:45.332Z,10.80
2022-11-12T03:26:35.620Z,10.74
2022-11-12T03:29:22.038Z,10.79
2022-11-12T03:32:08.726Z,10.93
2022-11-12T03:34:55.709Z,10.90
2022-11-12T03:37:44.700Z,10.72
2022-11-12T03:40:34.740Z,10.61
2022-11-12T03:43:22.639Z,10.80
2022-11-12T03:46:08.833Z,10.77
2022-11-12T03:48:55.441Z,10.70
2022-11-12T03:51:41.569Z,10.63
2022-11-12T03:54:27.874Z,10.62
2022-11-12T03:57:14.424Z,10.61
2022-11-12T04:00:00.510Z,10.60
2022-11-12T04:02:46.841Z,10.60
2022-11-12T04:05:52.276Z,10.57
2022-11-12T04:08:39.699Z,10.55
2022-11-12T04:11:25.788Z,10.38
2022-11-12T04:14:11.851Z,10.46
2022-11-12T04:17:16.686Z,10.58
2022-11-12T04:20:21.469Z,10.44
2022-11-12T04:23:07.375Z,10.42
2022-11-12T04:26:11.996Z,10.40
2022-11-12T04:29:18.123Z,10.17
2022-11-12T04:32:04.796Z,10.16
2022-11-12T04:34:51.074Z,10.31
2022-11-12T04:37:47.016Z,10.05
2022-11-12T04:40:52.300Z,10.11
2022-11-12T04:44:20.867Z,10.15
2022-11-12T04:47:07.559Z,10.04
2022-11-12T04:49:54.343Z,9.99
2022-11-12T04:52:40.606Z,9.95
2022-11-12T04:55:30.807Z,9.76
2022-11-12T04:58:18.155Z,9.84
2022-11-12T05:01:05.409Z,9.85
2022-11-12T05:03:51.634Z,9.84
2022-11-12T05:06:53.174Z,9.72
2022-11-12T05:09:40.955Z,9.61
2022-11-12T05:12:28.381Z,9.59
2022-11-12T05:15:15.362Z,9.52
2022-11-12T05:18:02.197Z,9.52
2022-11-12T05:20:52.573Z,9.51
2022-11-12T05:23:40.251Z,9.56
2022-11-12T05:26:28.618Z,9.30
2022-11-12T05:29:18.845Z,9.48
2022-11-12T05:32:07.753Z,9.28
2022-11-12T05:34:54.407Z,9.31
2022-11-12T05:37:40.305Z,9.38
2022-11-12T05:40:26.856Z,9.30
2022-11-12T05:43:13.544Z,9.33
2022-11-12T05:46:01.016Z,9.29
2022-11-12T05:48:48.753Z,9.00
2022-11-12T05:51:36.232Z,9.16
2022-11-12T05:54:25.666Z,9.14
2022-11-12T05:57:12.669Z,9.20
2022-11-12T06:00:07.735Z,9.21
2022-11-12T06:02:43.122Z,8.88
2022-11-12T06:05:33.575Z,9.00
2022-11-12T06:08:20.778Z,8.85
2022-11-12T06:11:12.488Z,8.93
2022-11-12T06:13:58.870Z,9.15
2022-11-12T06:16:47.771Z,8.88
2022-11-12T06:19:37.951Z,9.01
2022-11-12T06:22:24.129Z,9.09
2022-11-12T06:25:10.995Z,9.00
2022-11-12T06:27:59.278Z,9.02
2022-11-12T06:30:49.128Z,8.98
2022-11-12T06:33:42.107Z,9.02
2022-11-12T06:36:32.562Z,9.10
2022-11-12T06:39:21.138Z,9.06
2022-11-12T06:42:09.604Z,9.05
2022-11-12T06:44:56.108Z,9.13
2022-11-12T06:47:43.877Z,9.09
2022-11-12T06:50:31.727Z,9.10
2022-11-12T06:53:19.518Z,9.19
2022-11-12T06:56:11.590Z,9.18
2022-11-12T06:59:06.263Z,9.15
2022-11-12T07:01:56.000Z,9.34
2022-11-12T07:04:44.841Z,9.20
2022-11-12T07:07:34.857Z,9.27
2022-11-12T07:10:23.602Z,9.38
2022-11-12T07:13:14.609Z,9.31
2022-11-12T07:16:04.932Z,9.50
2022-11-12T07:18:56.793Z,9.80
2022-11-12T07:21:45.110Z,9.57
2022-11-12T07:24:33.389Z,9.48
2022-11-12T07:27:22.780Z,9.98
2022-11-12T07:30:14.111Z,9.65
2022-11-12T07:33:01.939Z,9.86
2022-11-12T07:35:49.018Z,10.08
2022-11-12T07:38:44.577Z,10.36
2022-11-12T07:41:32.642Z,10.15
2022-11-12T07:44:21.607Z,10.33
2022-11-12T07:47:09.050Z,10.52
2022-11-12T07:49:56.687Z,10.50
2022-11-12T07:52:49.528Z,10.51
2022-11-12T07:55:38.094Z,10.50
2022-11-12T07:58:39.610Z,10.75
2022-11-12T08:01:26.328Z,10.87
2022-11-12T08:04:22.790Z,10.86
2022-11-12T08:07:12.563Z,11.24
2022-11-12T08:10:08.670Z,11.26
2022-11-12T08:13:01.620Z,11.49
2022-11-12T08:15:52.214Z,11.87
2022-11-12T08:18:42.885Z,11.75
2022-11-12T08:21:35.051Z,12.21
2022-11-12T08:27:22.706Z,12.41
2022-11-12T08:30:16.744Z,12.14
2022-11-12T08:33:07.437Z,12.33
2022-11-12T08:36:06.800Z,12.45
2022-11-12T08:38:55.685Z,12.37
2022-11-12T08:41:42.747Z,12.57
2022-11-12T08:44:30.809Z,13.02
2022-11-12T08:47:18.767Z,12.91
2022-11-12T08:50:06.434Z,12.88
2022-11-12T08:52:54.732Z,12.85
2022-11-12T08:55:41.544Z,12.70
2022-11-12T09:04:30.936Z,13.14
2022-11-12T09:07:48.123Z,13.04
2022-11-12T09:10:44.908Z,13.04
2022-11-12T09:13:18.607Z,12.82
2022-11-12T09:16:08.604Z,13.15
2022-11-12T09:19:07.580Z,13.29
2022-11-12T09:21:58.640Z,12.95
2022-11-12T09:24:40.942Z,13.00
2022-11-12T09:27:29.653Z,13.14
2022-11-12T09:30:16.601Z,12.90
2022-11-12T09:32:59.884Z,12.75
2022-11-12T09:36:47.690Z,12.82
2022-11-12T09:39:46.062Z,13.01
2022-11-12T09:47:40.638Z,12.90
2022-11-12T09:50:34.316Z,13.07
2022-11-12T09:53:44.491Z,13.00
2022-11-12T09:56:28.576Z,12.74
2022-11-12T09:59:13.556Z,13.01
2022-11-12T10:02:19.474Z,12.88
2022-11-12T10:05:36.597Z,13.33
2022-11-12T10:08:46.050Z,13.19
2022-11-12T10:12:04.502Z,13.38
2022-11-12T10:15:21.575Z,13.30
2022-11-12T10:18:43.344Z,13.74
2022-11-12T10:21:50.796Z,13.88
2022-11-12T10:24:43.795Z,13.84
2022-11-12T10:27:40.746Z,14.36
2022-11-12T10:30:28.036Z,14.54
2022-11-12T10:33:24.860Z,13.80
2022-11-12T10:36:30.578Z,14.38
2022-11-12T10:39:34.484Z,15.15
2022-11-12T10:42:25.151Z,15.06
2022-11-12T10:45:24.578Z,15.42
2022-11-12T10:48:35.661Z,15.46
2022-11-12T10:51:28.972Z,15.22
2022-11-12T10:54:55.303Z,15.33
2022-11-12T10:57:44.920Z,16.09
2022-11-12T11:00:34.693Z,15.87
2022-11-12T11:03:24.950Z,15.57
2022-11-12T11:09:15.574Z,15.60
2022-11-12T11:12:04.746Z,15.22
2022-11-12T11:15:14.661Z,15.41
2022-11-12T11:18:02.520Z,15.01
2022-11-12T11:21:00.558Z,16.01
2022-11-12T11:24:04.636Z,16.29
2022-11-12T11:26:57.682Z,15.92
2022-11-12T11:29:59.547Z,16.25
2022-11-12T11:32:55.569Z,16.50
2022-11-12T11:36:15.833Z,16.19
2022-11-12T11:39:31.321Z,16.74
2022-11-12T11:42:44.726Z,16.43
2022-11-12T11:52:06.644Z,17.01
2022-11-12T11:55:22.687Z,16.94
2022-11-12T11:58:21.505Z,16.70
2022-11-12T12:01:20.298Z,16.90
2022-11-12T12:04:14.813Z,17.15
2022-11-12T12:07:28.505Z,16.93
2022-11-12T12:13:29.153Z,17.01
2022-11-12T12:16:25.643Z,17.13
2022-11-12T12:19:45.950Z,17.23
2022-11-12T12:22:40.792Z,17.58
2022-11-12T12:25:37.474Z,17.71
2022-11-12T12:28:22.924Z,17.32
2022-11-12T12:31:18.792Z,16.64
2022-11-12T12:34:40.571Z,17.52
2022-11-12T12:37:52.278Z,17.06
2022-11-12T12:45:40.863Z,17.10
2022-11-12T12:48:41.392Z,16.51
2022-11-12T12:54:39.825Z,16.60
2022-11-12T12:57:45.471Z,16.72
2022-11-12T13:00:40.547Z,16.81
2022-11-12T13:03:46.679Z,16.03
2022-11-12T13:06:50.924Z,16.36
2022-11-12T13:09:41.280Z,16.55
2022-11-12T13:13:04.195Z,16.74
2022-11-12T13:15:50.915Z,16.71
2022-11-12T13:18:40.394Z,16.82
2022-11-12T13:21:26.859Z,17.19
2022-11-12T13:24:14.264Z,16.83
2022-11-12T13:27:07.456Z,16.84
2022-11-12T13:29:55.619Z,16.57
2022-11-12T13:32:59.885Z,16.74
2022-11-12T13:35:48.618Z,16.89
2022-11-12T13:38:43.743Z,16.99
2022-11-12T13:41:58.777Z,16.82
2022-11-12T13:44:56.075Z,17.01
2022-11-12T13:47:44.944Z,17.03
2022-11-12T13:50:21.407Z,16.83
2022-11-12T13:53:10.488Z,16.89
2022-11-12T13:56:07.805Z,16.83
2022-11-12T13:59:20.644Z,16.91
2022-11-12T14:02:29.608Z,17.00
2022-11-12T14:05:19.110Z,16.62
2022-11-12T14:08:42.011Z,16.56
2022-11-12T14:12:06.575Z,16.85
2022-11-12T14:15:05.683Z,16.81
2022-11-12T14:17:50.591Z,16.91
2022-11-12T14:20:41.596Z,16.98
2022-11-12T14:23:30.616Z,16.46
2022-11-12T14:26:39.550Z,16.35
2022-11-12T14:29:31.367Z,16.50
2022-11-12T14:32:25.844Z,16.11
2022-11-12T14:35:32.146Z,16.01
2022-11-12T14:38:27.062Z,16.28
2022-11-12T14:41:20.719Z,15.92
2022-11-12T14:44:17.422Z,16.22
2022-11-12T14:47:05.924Z,16.38
2022-11-12T14:49:55.426Z,16.30
2022-11-12T14:52:49.593Z,16.23
2022-11-12T14:55:40.988Z,16.29
2022-11-12T14:58:30.949Z,16.26
2022-11-12T15:01:55.774Z,16.35
2022-11-12T15:04:50.554Z,16.09
2022-11-12T15:08:04.132Z,16.21
2022-11-12T15:11:30.031Z,16.24
2022-11-12T15:14:23.615Z,16.26
2022-11-12T15:17:27.481Z,16.17
2022-11-12T15:20:19.940Z,16.15
2022-11-12T15:23:16.630Z,16.16
2022-11-12T15:26:11.823Z,15.92
2022-11-12T15:29:25.595Z,15.98
2022-11-12T15:32:15.585Z,15.93
2022-11-12T15:35:07.576Z,16.01
2022-11-12T15:38:07.642Z,16.01
2022-11-12T15:41:01.657Z,16.24
2022-11-12T15:46:42.012Z,16.13
2022-11-12T15:49:30.135Z,16.29
2022-11-12T15:52:18.996Z,16.02
2022-11-12T15:55:22.697Z,15.96
2022-11-12T16:01:08.272Z,15.87
2022-11-12T16:03:55.040Z,15.84
2022-11-12T16:06:45.814Z,15.83
2022-11-12T16:09:43.674Z,15.69
2022-11-12T16:12:33.625Z,15.61
2022-11-12T16:15:29.661Z,15.60
2022-11-12T16:18:20.699Z,15.71
2022-11-12T16:21:20.660Z,15.46
2022-11-12T16:24:12.640Z,15.42
2022-11-12T16:27:02.591Z,15.54
2022-11-12T16:32:44.873Z,15.80
2022-11-12T16:35:39.192Z,15.61
2022-11-12T16:38:27.609Z,15.45
2022-11-12T16:41:14.869Z,15.64
2022-11-12T16:44:05.039Z,15.71
2022-11-12T16:46:40.567Z,15.64
2022-11-12T16:49:38.675Z,15.33
2022-11-12T16:52:20.284Z,15.22
2022-11-12T16:55:00.116Z,15.25
2022-11-12T16:57:53.571Z,15.18
2022-11-12T17:00:50.820Z,15.22
2022-11-12T17:03:42.624Z,15.17
2022-11-12T17:06:39.082Z,15.10
2022-11-12T17:09:27.823Z,15.02
2022-11-12T17:12:09.607Z,15.03
2022-11-12T17:14:59.821Z,14.93
2022-11-12T17:17:58.570Z,14.92
2022-11-12T17:20:51.245Z,14.95
2022-11-12T17:23:38.598Z,14.88
2022-11-12T17:26:19.626Z,14.91
2022-11-12T17:29:08.471Z,14.76
2022-11-12T17:31:55.743Z,14.49
2022-11-12T17:34:57.531Z,14.58
2022-11-12T17:37:51.600Z,14.53
2022-11-12T17:40:39.219Z,14.38
2022-11-12T17:50:37.863Z,14.38
2022-11-12T17:53:31.620Z,14.22
2022-11-12T17:59:02.762Z,14.65
2022-11-12T18:01:49.201Z,14.65
2022-11-12T18:04:36.657Z,13.97
2022-11-12T18:07:22.673Z,13.96
2022-11-12T18:10:14.415Z,13.95
2022-11-12T18:13:02.883Z,13.89
2022-11-12T18:15:49.049Z,13.91
2022-11-12T18:18:35.211Z,13.72
2022-11-12T18:21:21.794Z,13.67
2022-11-12T18:24:13.130Z,13.73
2022-11-12T18:26:59.135Z,13.74
2022-11-12T18:29:46.521Z,13.73
2022-11-12T18:32:32.793Z,13.68
2022-11-12T18:35:19.602Z,13.78
2022-11-12T18:38:05.680Z,13.82
2022-11-12T18:41:03.173Z,13.72
2022-11-12T18:43:49.081Z,13.68
2022-11-12T18:46:35.318Z,13.61
2022-11-12T18:49:21.541Z,13.78
2022-11-12T18:52:07.761Z,13.63
2022-11-12T18:54:53.920Z,13.52
2022-11-12T18:57:40.008Z,13.57
2022-11-12T19:00:26.155Z,13.89
2022-11-12T19:03:12.258Z,13.67
2022-11-12T19:06:02.993Z,13.45
2022-11-12T19:08:51.983Z,13.47
2022-11-12T19:11:40.444Z,13.36
2022-11-12T19:14:28.615Z,13.33
2022-11-12T19:17:34.608Z,13.44
2022-11-12T19:20:40.431Z,13.46
2022-11-12T19:23:29.880Z,13.57
2022-11-12T19:26:18.025Z,13.61
2022-11-12T19:29:04.587Z,13.54
2022-11-12T19:31:51.241Z,13.59
2022-11-12T19:34:57.032Z,13.47
2022-11-12T19:37:43.607Z,13.48
2022-11-12T19:40:29.970Z,13.47
2022-11-12T19:43:16.613Z,13.41
2022-11-12T19:46:08.870Z,13.44
2022-11-12T19:48:55.240Z,13.42
2022-11-12T19:51:42.219Z,13.44
2022-11-12T19:54:29.200Z,13.47
2022-11-12T19:57:15.442Z,13.39
2022-11-12T20:00:21.145Z,13.36
2022-11-12T20:03:07.185Z,13.31
2022-11-12T20:06:06.108Z,13.29
2022-11-12T20:09:08.962Z,13.26
2022-11-12T20:11:55.760Z,13.30
2022-11-12T20:14:41.883Z,13.28
2022-11-12T20:17:28.044Z,13.31
2022-11-12T20:20:14.951Z,13.33
2022-11-12T20:23:01.754Z,13.25
2022-11-12T20:25:51.563Z,13.36
2022-11-12T20:28:38.814Z,13.38
2022-11-12T20:31:25.036Z,13.37
2022-11-12T20:34:12.445Z,13.30
2022-11-12T20:36:58.533Z,13.34
2022-11-12T20:39:44.924Z,13.40
2022-11-12T20:42:30.748Z,13.33
2022-11-12T20:45:16.829Z,13.25
2022-11-12T20:48:03.360Z,13.29
2022-11-12T20:51:16.968Z,13.19
2022-11-12T20:53:59.969Z,13.26
2022-11-12T20:56:49.169Z,13.25
2022-11-12T20:59:41.010Z,13.19
2022-11-12T21:02:27.275Z,13.16
2022-11-12T21:05:13.367Z,13.17
2022-11-12T21:07:59.473Z,13.14
2022-11-12T21:10:49.627Z,13.16
2022-11-12T21:13:36.329Z,13.17
2022-11-12T21:16:22.126Z,13.16
2022-11-12T21:19:08.382Z,13.03
2022-11-12T21:21:54.425Z,13.03
2022-11-12T21:24:40.398Z,12.87
2022-11-12T21:27:26.600Z,12.90
2022-11-12T21:30:12.650Z,12.86
2022-11-12T21:32:59.650Z,12.78
2022-11-12T21:35:52.361Z,12.76
2022-11-12T21:38:38.316Z,12.71
2022-11-12T21:41:26.574Z,12.68
2022-11-12T21:44:12.657Z,12.66
2022-11-12T21:46:58.727Z,12.44
2022-11-12T21:49:44.797Z,12.30
2022-11-12T21:52:30.913Z,12.18
2022-11-12T21:55:17.115Z,12.04
2022-11-12T21:58:03.066Z,12.09
2022-11-12T22:00:49.258Z,11.86
2022-11-12T22:03:35.367Z,11.81
2022-11-12T22:06:24.083Z,11.83
2022-11-12T22:09:09.938Z,11.81
2022-11-12T22:11:56.327Z,11.68
2022-11-12T22:14:44.259Z,11.63
2022-11-12T22:17:33.349Z,11.58
2022-11-12T22:20:19.522Z,11.49
2022-11-12T22:23:05.608Z,11.39
2022-11-12T22:25:52.364Z,11.39
2022-11-12T22:28:38.386Z,11.33
2022-11-12T22:31:29.838Z,11.27
2022-11-12T22:34:16.122Z,11.28
2022-11-12T22:37:02.471Z,11.36
2022-11-12T22:39:48.546Z,11.14
2022-11-12T22:42:35.049Z,11.13
2022-11-12T22:45:21.072Z,11.16
2022-11-12T22:48:07.176Z,10.99
2022-11-12T22:50:58.673Z,10.72
2022-11-12T22:53:44.920Z,10.67
2022-11-12T22:56:34.814Z,10.50
2022-11-12T22:59:22.830Z,10.74
2022-11-12T23:02:09.045Z,10.51
2022-11-12T23:04:55.254Z,10.52
2022-11-12T23:07:41.585Z,10.46
2022-11-12T23:10:28.157Z,10.39
2022-11-12T23:13:14.670Z,10.49
2022-11-12T23:16:02.657Z,10.57
2022-11-12T23:23:12.127Z,10.56
2022-11-12T23:25:54.527Z,10.33
2022-11-12T23:28:36.800Z,10.21
2022-11-12T23:31:25.023Z,10.06
2022-11-12T23:34:07.462Z,9.94
2022-11-12T23:36:49.381Z,10.08
2022-11-12T23:39:31.383Z,10.14
2022-11-12T23:42:13.366Z,10.16
2022-11-12T23:44:55.376Z,9.90
2022-11-12T23:47:37.382Z,10.10
2022-11-12T23:50:21.580Z,9.88
2022-11-12T23:53:03.502Z,9.73
2022-11-12T23:55:45.365Z,9.62
2022-11-12T23:58:27.868Z,9.69
